Orenge 7 — JL6148 — position and weather

sailwx.info

Track history (hours):
 
Tides and Currents Weather Stations Pressure Air Temp Water Temp Dewpoint Dewpoint Depression Visibility Wind Speed Wind Dir Waves Ship Positions

Orenge 7

Last reported at 2017-Oct-22 02:01 UTC. Time now 2017-Oct-22 17:16 UTC.
Position N 34°35' E 134°53'.

Length 163 m; draft 4.9 m.

Type: Passenger vessel. MMSI: 431500186.

Date/timePositionNaut miles runAvg speedWind from/ knotsBaromVisibWave heightAir tempDewpointWater temp
2017-Oct-22 02:01N 34°35' E 134°53'222.9
2017-Oct-22 01:56N 34°36' E 134°55'920.1
2017-Oct-22 01:31N 34°36' E 135°06'1020.4
2017-Oct-22 01:00N 34°36' E 135°18'613.0
2017-Oct-22 00:30N 34°37' E 135°26'0 0.1
2017-Oct-21 23:55N 34°37' E 135°26'0 0.0
2017-Oct-21 23:25N 34°37' E 135°26'0 0.0
2017-Oct-21 22:55N 34°37' E 135°26'0 0.0
2017-Oct-21 22:25N 34°37' E 135°26'0 0.0
2017-Oct-21 21:49N 34°37' E 135°26'0 0.0
2017-Oct-21 21:25N 34°37' E 135°26'0 0.1
2017-Oct-21 21:00N 34°37' E 135°26'611.7
2017-Oct-21 20:30N 34°36' E 135°19'816.1
2017-Oct-21 20:00N 34°35' E 135°09'918.7
2017-Oct-21 19:30N 34°37' E 134°58'1120.3
2017-Oct-21 18:58N 34°32' E 134°46'3 0.1
2017-Oct-20 14:51N 34°34' E 134°49'719.5
2017-Oct-20 14:30N 34°37' E 134°56'1919.3
2017-Oct-20 13:30N 34°37' E 135°19'5 9.8
2017-Oct-20 12:58N 34°37' E 135°26'0 0.0
2017-Oct-20 12:16N 34°37' E 135°26'0 0.0
2017-Oct-20 11:46N 34°37' E 135°26'0 0.0
2017-Oct-20 11:28N 34°37' E 135°26'0 0.0
2017-Oct-20 10:58N 34°37' E 135°26'0 0.0
2017-Oct-20 10:22N 34°37' E 135°26'0 0.0
2017-Oct-20 09:52N 34°37' E 135°26'0 0.0
2017-Oct-20 09:22N 34°37' E 135°26'0 0.0
2017-Oct-20 08:52N 34°37' E 135°26'0 0.0
2017-Oct-20 08:28N 34°37' E 135°26'0 0.0
2017-Oct-20 07:59N 34°37' E 135°26'0 0.0
2017-Oct-20 07:29N 34°37' E 135°26'0 0.0
2017-Oct-20 06:59N 34°37' E 135°26'0 0.0
2017-Oct-20 06:29N 34°37' E 135°26'0 0.0
2017-Oct-20 05:53N 34°37' E 135°26'0 0.0
2017-Oct-20 05:29N 34°37' E 135°26'0 0.0
2017-Oct-20 04:59N 34°37' E 135°26'0 0.0
2017-Oct-20 04:29N 34°37' E 135°26'0 0.0
2017-Oct-20 03:59N 34°37' E 135°26'0 0.0
2017-Oct-20 03:29N 34°37' E 135°26'0 0.0
2017-Oct-20 02:59N 34°37' E 135°26'0 0.0
2017-Oct-20 02:29N 34°37' E 135°26'0 0.0
2017-Oct-20 01:53N 34°37' E 135°26'0 0.0
2017-Oct-20 01:29N 34°37' E 135°26'0 0.0
2017-Oct-20 00:59N 34°37' E 135°26'0 0.0
2017-Oct-20 00:29N 34°37' E 135°26'0 0.0
2017-Oct-19 23:53N 34°37' E 135°26'0 0.1
2017-Oct-19 23:23N 34°37' E 135°26'0 0.0
2017-Oct-19 22:59N 34°37' E 135°26'0 0.0
2017-Oct-19 22:23N 34°37' E 135°26'0 0.0
2017-Oct-19 21:53N 34°37' E 135°26'0 0.0
2017-Oct-19 21:09N 34°37' E 135°26'0 0.3
2017-Oct-19 21:00N 34°37' E 135°26'611.0
2017-Oct-19 20:30N 34°36' E 135°19'917.2
2017-Oct-19 20:00N 34°35' E 135°09'918.1
2017-Oct-19 19:30N 34°37' E 134°58'1019.0
2017-Oct-19 18:59N 34°32' E 134°47'3 0.1
2017-Oct-18 14:51N 34°34' E 134°49'1517.6
2017-Oct-18 14:00N 34°36' E 135°07'1020.2
2017-Oct-18 13:30N 34°37' E 135°19'510.8
2017-Oct-18 13:00N 34°37' E 135°26'0 0.0
2017-Oct-18 12:27N 34°37' E 135°26'0 0.0
2017-Oct-18 11:57N 34°37' E 135°26'0 0.0
2017-Oct-18 11:27N 34°37' E 135°26'0 0.0
2017-Oct-18 10:57N 34°37' E 135°26'0 0.0
2017-Oct-18 10:21N 34°37' E 135°26'0 0.0
2017-Oct-18 09:57N 34°37' E 135°26'0 0.0
2017-Oct-18 09:27N 34°37' E 135°26'0 0.0
2017-Oct-18 08:57N 34°37' E 135°26'0 0.0
2017-Oct-18 08:27N 34°37' E 135°26'0 0.0
2017-Oct-18 07:57N 34°37' E 135°26'0 0.0
2017-Oct-18 07:27N 34°37' E 135°26'0 0.0
2017-Oct-18 06:57N 34°37' E 135°26'0 0.0
2017-Oct-18 06:27N 34°37' E 135°26'0 0.0
2017-Oct-18 05:57N 34°37' E 135°26'0 0.0
2017-Oct-18 05:27N 34°37' E 135°26'0 0.0
2017-Oct-18 04:57N 34°37' E 135°26'0 0.0
2017-Oct-18 04:27N 34°37' E 135°26'0 0.0
2017-Oct-18 03:57N 34°37' E 135°26'0 0.0
2017-Oct-18 03:27N 34°37' E 135°26'0 0.0
2017-Oct-18 02:57N 34°37' E 135°26'0 0.0
2017-Oct-18 02:27N 34°37' E 135°26'0 0.0
2017-Oct-18 01:57N 34°37' E 135°26'0 0.0
2017-Oct-18 01:27N 34°37' E 135°26'0 0.0
2017-Oct-18 00:57N 34°37' E 135°26'0 0.0
2017-Oct-18 00:27N 34°37' E 135°26'0 0.0
2017-Oct-17 23:57N 34°37' E 135°26'0 0.0
2017-Oct-17 23:27N 34°37' E 135°26'0 0.0
2017-Oct-17 22:57N 34°37' E 135°26'0 0.0
2017-Oct-17 22:27N 34°37' E 135°26'0 0.0
2017-Oct-17 21:57N 34°37' E 135°26'0 0.0
2017-Oct-17 21:21N 34°37' E 135°26'0 0.6
2017-Oct-17 21:00N 34°37' E 135°26'714.2
2017-Oct-17 20:30N 34°36' E 135°17'918.6
2017-Oct-17 20:00N 34°34' E 135°06'816.8
2017-Oct-17 19:30N 34°36' E 134°56'1019.0
2017-Oct-17 19:00N 34°32' E 134°46'7 0.2
2017-Oct-16 14:47N 34°35' E 134°53'1215.9
2017-Oct-16 14:00N 34°36' E 135°08'1019.2
2017-Oct-16 13:30N 34°37' E 135°19'510.6
2017-Oct-16 13:00N 34°37' E 135°26'0 0.0
2017-Oct-16 12:27N 34°37' E 135°26'0 0.0
2017-Oct-16 11:57N 34°37' E 135°26'0 0.0
2017-Oct-16 11:27N 34°37' E 135°26'0 0.0
2017-Oct-16 10:57N 34°37' E 135°26'0 0.0
2017-Oct-16 10:27N 34°37' E 135°26'0 0.0
2017-Oct-16 09:57N 34°37' E 135°26'0 0.0
2017-Oct-16 09:27N 34°37' E 135°26'0 0.0
2017-Oct-16 08:57N 34°37' E 135°26'0 0.0
2017-Oct-16 08:27N 34°37' E 135°26'0 0.0
2017-Oct-16 07:51N 34°37' E 135°26'0 0.0
2017-Oct-16 07:21N 34°37' E 135°26'0 0.0
2017-Oct-16 06:57N 34°37' E 135°26'0 0.0
2017-Oct-16 06:27N 34°37' E 135°26'0 0.0
2017-Oct-16 05:57N 34°37' E 135°26'0 0.0
2017-Oct-16 05:27N 34°37' E 135°26'0 0.0
2017-Oct-16 04:51N 34°37' E 135°26'0 0.0
2017-Oct-16 04:21N 34°37' E 135°26'0 0.0
2017-Oct-16 03:57N 34°37' E 135°26'0 0.0
2017-Oct-16 03:27N 34°37' E 135°26'0 0.0
2017-Oct-16 02:57N 34°37' E 135°26'0 0.0
2017-Oct-16 02:27N 34°37' E 135°26'0 0.0
2017-Oct-16 01:57N 34°37' E 135°26'0 0.0
2017-Oct-16 01:27N 34°37' E 135°26'0 0.0
2017-Oct-16 00:57N 34°37' E 135°26'0 0.0
2017-Oct-16 00:27N 34°37' E 135°26'0 0.0
2017-Oct-15 23:57N 34°37' E 135°26'0 0.0
2017-Oct-15 23:27N 34°37' E 135°26'0 0.0
2017-Oct-15 22:57N 34°37' E 135°26'0 0.0
2017-Oct-15 22:27N 34°37' E 135°26'0 0.0
2017-Oct-15 21:45N 34°37' E 135°26'0 0.0
2017-Oct-15 21:27N 34°37' E 135°26'2 3.7
2017-Oct-15 21:01N 34°38' E 135°24'611.2
2017-Oct-15 20:30N 34°35' E 135°18'1019.5
2017-Oct-15 20:00N 34°35' E 135°06'816.4
2017-Oct-15 19:30N 34°36' E 134°56'2 0.1
2017-Oct-14 14:45N 34°36' E 134°54'417.4
2017-Oct-14 14:29N 34°37' E 134°59'816.2
2017-Oct-14 14:00N 34°36' E 135°08'918.6
2017-Oct-14 13:30N 34°37' E 135°19'510.8
2017-Oct-14 13:00N 34°37' E 135°26'0 0.0
2017-Oct-14 12:29N 34°37' E 135°26'0 0.0
2017-Oct-14 11:59N 34°37' E 135°26'0 0.0
2017-Oct-14 11:29N 34°37' E 135°26'0 0.0
2017-Oct-14 10:59N 34°37' E 135°26'0 0.0
2017-Oct-14 10:23N 34°37' E 135°26'0 0.0
2017-Oct-14 09:59N 34°37' E 135°26'0 0.0
2017-Oct-14 09:29N 34°37' E 135°26'0 0.0
2017-Oct-14 08:59N 34°37' E 135°26'0 0.0
2017-Oct-14 08:29N 34°37' E 135°26'0 0.0
2017-Oct-14 07:59N 34°37' E 135°26'0 0.0
2017-Oct-14 07:29N 34°37' E 135°26'0 0.0
2017-Oct-14 06:59N 34°37' E 135°26'0 0.0
2017-Oct-14 06:29N 34°37' E 135°26'0 0.0
2017-Oct-14 05:17N 34°37' E 135°26'0 0.0
2017-Oct-14 04:59N 34°37' E 135°26'0 0.0
2017-Oct-14 04:29N 34°37' E 135°26'0 0.0
2017-Oct-14 03:59N 34°37' E 135°26'0 0.0
2017-Oct-14 03:23N 34°37' E 135°26'0 0.0
2017-Oct-14 02:59N 34°37' E 135°26'0 0.0
2017-Oct-14 02:29N 34°37' E 135°26'0 0.0
2017-Oct-14 01:53N 34°37' E 135°26'0 0.0
2017-Oct-14 01:29N 34°37' E 135°26'0 0.0
2017-Oct-14 00:53N 34°37' E 135°26'0 0.0
2017-Oct-14 00:29N 34°37' E 135°26'0 0.0
2017-Oct-13 23:59N 34°37' E 135°26'0 0.0
2017-Oct-13 23:17N 34°37' E 135°26'0 0.0
2017-Oct-13 22:59N 34°37' E 135°26'0 0.0
2017-Oct-13 22:11N 34°37' E 135°26'0 0.0
2017-Oct-13 21:59N 34°37' E 135°26'0 0.0
2017-Oct-13 21:29N 34°37' E 135°26'0 0.2
2017-Oct-13 21:00N 34°37' E 135°26'611.9
2017-Oct-13 20:30N 34°36' E 135°19'918.7
2017-Oct-13 20:00N 34°35' E 135°07'817.1
2017-Oct-13 19:30N 34°36' E 134°57'5 0.2
2017-Oct-12 14:48N 34°35' E 134°52'619.2
2017-Oct-12 14:30N 34°37' E 134°58'917.3
2017-Oct-12 14:00N 34°36' E 135°08'918.9
2017-Oct-12 13:30N 34°37' E 135°20'510.4
2017-Oct-12 13:00N 34°37' E 135°26'0 0.0
2017-Oct-12 11:11N 34°37' E 135°26'0 0.0
2017-Oct-12 10:41N 34°37' E 135°26'0 0.0
2017-Oct-12 10:29N 34°37' E 135°26'0 0.0
2017-Oct-12 09:59N 34°37' E 135°26'0 0.0
2017-Oct-12 09:29N 34°37' E 135°26'0 0.0
2017-Oct-12 08:47N 34°37' E 135°26'0 0.0
2017-Oct-12 08:29N 34°37' E 135°26'0 0.1
2017-Oct-12 07:59N 34°37' E 135°26'0 0.0
2017-Oct-12 07:23N 34°37' E 135°26'0 0.0
2017-Oct-12 06:59N 34°37' E 135°26'0 0.0
2017-Oct-12 06:29N 34°37' E 135°26'0 0.0
2017-Oct-12 05:59N 34°37' E 135°26'0 0.0
2017-Oct-12 05:29N 34°37' E 135°26'0 0.0
2017-Oct-12 04:53N 34°37' E 135°26'0 0.0
2017-Oct-12 04:29N 34°37' E 135°26'0 0.0
2017-Oct-12 03:53N 34°37' E 135°26'0 0.0
2017-Oct-12 03:29N 34°37' E 135°26'0 0.0
2017-Oct-12 02:59N 34°37' E 135°26'0 0.0
2017-Oct-12 02:29N 34°37' E 135°26'  
Track history (hours):
 
Tides and Currents Weather Stations Pressure Air Temp Water Temp Dewpoint Dewpoint Depression Visibility Wind Speed Wind Dir Waves Ship Positions

Orenge 7

Last reported at 2017-Oct-22 02:01 UTC. Time now 2017-Oct-22 17:16 UTC.
Position N 34°35' E 134°53'.

Length 163 m; draft 4.9 m.

Type: Passenger vessel. MMSI: 431500186.

Date/timePositionNaut miles runAvg speedWind from/ knotsBaromVisibWave heightAir tempDewpointWater temp
2017-Oct-22 02:01N 34°35' E 134°53'222.9
2017-Oct-22 01:56N 34°36' E 134°55'920.1
2017-Oct-22 01:31N 34°36' E 135°06'1020.4
2017-Oct-22 01:00N 34°36' E 135°18'613.0
2017-Oct-22 00:30N 34°37' E 135°26'0 0.1
2017-Oct-21 23:55N 34°37' E 135°26'0 0.0
2017-Oct-21 23:25N 34°37' E 135°26'0 0.0
2017-Oct-21 22:55N 34°37' E 135°26'0 0.0
2017-Oct-21 22:25N 34°37' E 135°26'0 0.0
2017-Oct-21 21:49N 34°37' E 135°26'0 0.0
2017-Oct-21 21:25N 34°37' E 135°26'0 0.1
2017-Oct-21 21:00N 34°37' E 135°26'611.7
2017-Oct-21 20:30N 34°36' E 135°19'816.1
2017-Oct-21 20:00N 34°35' E 135°09'918.7
2017-Oct-21 19:30N 34°37' E 134°58'1120.3
2017-Oct-21 18:58N 34°32' E 134°46'3 0.1
2017-Oct-20 14:51N 34°34' E 134°49'719.5
2017-Oct-20 14:30N 34°37' E 134°56'1919.3
2017-Oct-20 13:30N 34°37' E 135°19'5 9.8
2017-Oct-20 12:58N 34°37' E 135°26'0 0.0
2017-Oct-20 12:16N 34°37' E 135°26'0 0.0
2017-Oct-20 11:46N 34°37' E 135°26'0 0.0
2017-Oct-20 11:28N 34°37' E 135°26'0 0.0
2017-Oct-20 10:58N 34°37' E 135°26'0 0.0
2017-Oct-20 10:22N 34°37' E 135°26'0 0.0
2017-Oct-20 09:52N 34°37' E 135°26'0 0.0
2017-Oct-20 09:22N 34°37' E 135°26'0 0.0
2017-Oct-20 08:52N 34°37' E 135°26'0 0.0
2017-Oct-20 08:28N 34°37' E 135°26'0 0.0
2017-Oct-20 07:59N 34°37' E 135°26'0 0.0
2017-Oct-20 07:29N 34°37' E 135°26'0 0.0
2017-Oct-20 06:59N 34°37' E 135°26'0 0.0
2017-Oct-20 06:29N 34°37' E 135°26'0 0.0
2017-Oct-20 05:53N 34°37' E 135°26'0 0.0
2017-Oct-20 05:29N 34°37' E 135°26'0 0.0
2017-Oct-20 04:59N 34°37' E 135°26'0 0.0
2017-Oct-20 04:29N 34°37' E 135°26'0 0.0
2017-Oct-20 03:59N 34°37' E 135°26'0 0.0
2017-Oct-20 03:29N 34°37' E 135°26'0 0.0
2017-Oct-20 02:59N 34°37' E 135°26'0 0.0
2017-Oct-20 02:29N 34°37' E 135°26'0 0.0
2017-Oct-20 01:53N 34°37' E 135°26'0 0.0
2017-Oct-20 01:29N 34°37' E 135°26'0 0.0
2017-Oct-20 00:59N 34°37' E 135°26'0 0.0
2017-Oct-20 00:29N 34°37' E 135°26'0 0.0
2017-Oct-19 23:53N 34°37' E 135°26'0 0.1
2017-Oct-19 23:23N 34°37' E 135°26'0 0.0
2017-Oct-19 22:59N 34°37' E 135°26'0 0.0
2017-Oct-19 22:23N 34°37' E 135°26'0 0.0
2017-Oct-19 21:53N 34°37' E 135°26'0 0.0
2017-Oct-19 21:09N 34°37' E 135°26'0 0.3
2017-Oct-19 21:00N 34°37' E 135°26'611.0
2017-Oct-19 20:30N 34°36' E 135°19'917.2
2017-Oct-19 20:00N 34°35' E 135°09'918.1
2017-Oct-19 19:30N 34°37' E 134°58'1019.0
2017-Oct-19 18:59N 34°32' E 134°47'3 0.1
2017-Oct-18 14:51N 34°34' E 134°49'1517.6
2017-Oct-18 14:00N 34°36' E 135°07'1020.2
2017-Oct-18 13:30N 34°37' E 135°19'510.8
2017-Oct-18 13:00N 34°37' E 135°26'0 0.0
2017-Oct-18 12:27N 34°37' E 135°26'0 0.0
2017-Oct-18 11:57N 34°37' E 135°26'0 0.0
2017-Oct-18 11:27N 34°37' E 135°26'0 0.0
2017-Oct-18 10:57N 34°37' E 135°26'0 0.0
2017-Oct-18 10:21N 34°37' E 135°26'0 0.0
2017-Oct-18 09:57N 34°37' E 135°26'0 0.0
2017-Oct-18 09:27N 34°37' E 135°26'0 0.0
2017-Oct-18 08:57N 34°37' E 135°26'0 0.0
2017-Oct-18 08:27N 34°37' E 135°26'0 0.0
2017-Oct-18 07:57N 34°37' E 135°26'0 0.0
2017-Oct-18 07:27N 34°37' E 135°26'0 0.0
2017-Oct-18 06:57N 34°37' E 135°26'0 0.0
2017-Oct-18 06:27N 34°37' E 135°26'0 0.0
2017-Oct-18 05:57N 34°37' E 135°26'0 0.0
2017-Oct-18 05:27N 34°37' E 135°26'0 0.0
2017-Oct-18 04:57N 34°37' E 135°26'0 0.0
2017-Oct-18 04:27N 34°37' E 135°26'0 0.0
2017-Oct-18 03:57N 34°37' E 135°26'0 0.0
2017-Oct-18 03:27N 34°37' E 135°26'0 0.0
2017-Oct-18 02:57N 34°37' E 135°26'0 0.0
2017-Oct-18 02:27N 34°37' E 135°26'0 0.0
2017-Oct-18 01:57N 34°37' E 135°26'0 0.0
2017-Oct-18 01:27N 34°37' E 135°26'0 0.0
2017-Oct-18 00:57N 34°37' E 135°26'0 0.0
2017-Oct-18 00:27N 34°37' E 135°26'0 0.0
2017-Oct-17 23:57N 34°37' E 135°26'0 0.0
2017-Oct-17 23:27N 34°37' E 135°26'0 0.0
2017-Oct-17 22:57N 34°37' E 135°26'0 0.0
2017-Oct-17 22:27N 34°37' E 135°26'0 0.0
2017-Oct-17 21:57N 34°37' E 135°26'0 0.0
2017-Oct-17 21:21N 34°37' E 135°26'0 0.6
2017-Oct-17 21:00N 34°37' E 135°26'714.2
2017-Oct-17 20:30N 34°36' E 135°17'918.6
2017-Oct-17 20:00N 34°34' E 135°06'816.8
2017-Oct-17 19:30N 34°36' E 134°56'1019.0
2017-Oct-17 19:00N 34°32' E 134°46'7 0.2
2017-Oct-16 14:47N 34°35' E 134°53'1215.9
2017-Oct-16 14:00N 34°36' E 135°08'1019.2
2017-Oct-16 13:30N 34°37' E 135°19'510.6
2017-Oct-16 13:00N 34°37' E 135°26'0 0.0
2017-Oct-16 12:27N 34°37' E 135°26'0 0.0
2017-Oct-16 11:57N 34°37' E 135°26'0 0.0
2017-Oct-16 11:27N 34°37' E 135°26'0 0.0
2017-Oct-16 10:57N 34°37' E 135°26'0 0.0
2017-Oct-16 10:27N 34°37' E 135°26'0 0.0
2017-Oct-16 09:57N 34°37' E 135°26'0 0.0
2017-Oct-16 09:27N 34°37' E 135°26'0 0.0
2017-Oct-16 08:57N 34°37' E 135°26'0 0.0
2017-Oct-16 08:27N 34°37' E 135°26'0 0.0
2017-Oct-16 07:51N 34°37' E 135°26'0 0.0
2017-Oct-16 07:21N 34°37' E 135°26'0 0.0
2017-Oct-16 06:57N 34°37' E 135°26'0 0.0
2017-Oct-16 06:27N 34°37' E 135°26'0 0.0
2017-Oct-16 05:57N 34°37' E 135°26'0 0.0
2017-Oct-16 05:27N 34°37' E 135°26'0 0.0
2017-Oct-16 04:51N 34°37' E 135°26'0 0.0
2017-Oct-16 04:21N 34°37' E 135°26'0 0.0
2017-Oct-16 03:57N 34°37' E 135°26'0 0.0
2017-Oct-16 03:27N 34°37' E 135°26'0 0.0
2017-Oct-16 02:57N 34°37' E 135°26'0 0.0
2017-Oct-16 02:27N 34°37' E 135°26'0 0.0
2017-Oct-16 01:57N 34°37' E 135°26'0 0.0
2017-Oct-16 01:27N 34°37' E 135°26'0 0.0
2017-Oct-16 00:57N 34°37' E 135°26'0 0.0
2017-Oct-16 00:27N 34°37' E 135°26'0 0.0
2017-Oct-15 23:57N 34°37' E 135°26'0 0.0
2017-Oct-15 23:27N 34°37' E 135°26'0 0.0
2017-Oct-15 22:57N 34°37' E 135°26'0 0.0
2017-Oct-15 22:27N 34°37' E 135°26'0 0.0
2017-Oct-15 21:45N 34°37' E 135°26'0 0.0
2017-Oct-15 21:27N 34°37' E 135°26'2 3.7
2017-Oct-15 21:01N 34°38' E 135°24'611.2
2017-Oct-15 20:30N 34°35' E 135°18'1019.5
2017-Oct-15 20:00N 34°35' E 135°06'816.4
2017-Oct-15 19:30N 34°36' E 134°56'2 0.1
2017-Oct-14 14:45N 34°36' E 134°54'417.4
2017-Oct-14 14:29N 34°37' E 134°59'816.2
2017-Oct-14 14:00N 34°36' E 135°08'918.6
2017-Oct-14 13:30N 34°37' E 135°19'510.8
2017-Oct-14 13:00N 34°37' E 135°26'0 0.0
2017-Oct-14 12:29N 34°37' E 135°26'0 0.0
2017-Oct-14 11:59N 34°37' E 135°26'0 0.0
2017-Oct-14 11:29N 34°37' E 135°26'0 0.0
2017-Oct-14 10:59N 34°37' E 135°26'0 0.0
2017-Oct-14 10:23N 34°37' E 135°26'0 0.0
2017-Oct-14 09:59N 34°37' E 135°26'0 0.0
2017-Oct-14 09:29N 34°37' E 135°26'0 0.0
2017-Oct-14 08:59N 34°37' E 135°26'0 0.0
2017-Oct-14 08:29N 34°37' E 135°26'0 0.0
2017-Oct-14 07:59N 34°37' E 135°26'0 0.0
2017-Oct-14 07:29N 34°37' E 135°26'0 0.0
2017-Oct-14 06:59N 34°37' E 135°26'0 0.0
2017-Oct-14 06:29N 34°37' E 135°26'0 0.0
2017-Oct-14 05:17N 34°37' E 135°26'0 0.0
2017-Oct-14 04:59N 34°37' E 135°26'0 0.0
2017-Oct-14 04:29N 34°37' E 135°26'0 0.0
2017-Oct-14 03:59N 34°37' E 135°26'0 0.0
2017-Oct-14 03:23N 34°37' E 135°26'0 0.0
2017-Oct-14 02:59N 34°37' E 135°26'0 0.0
2017-Oct-14 02:29N 34°37' E 135°26'0 0.0
2017-Oct-14 01:53N 34°37' E 135°26'0 0.0
2017-Oct-14 01:29N 34°37' E 135°26'0 0.0
2017-Oct-14 00:53N 34°37' E 135°26'0 0.0
2017-Oct-14 00:29N 34°37' E 135°26'0 0.0
2017-Oct-13 23:59N 34°37' E 135°26'0 0.0
2017-Oct-13 23:17N 34°37' E 135°26'0 0.0
2017-Oct-13 22:59N 34°37' E 135°26'0 0.0
2017-Oct-13 22:11N 34°37' E 135°26'0 0.0
2017-Oct-13 21:59N 34°37' E 135°26'0 0.0
2017-Oct-13 21:29N 34°37' E 135°26'0 0.2
2017-Oct-13 21:00N 34°37' E 135°26'611.9
2017-Oct-13 20:30N 34°36' E 135°19'918.7
2017-Oct-13 20:00N 34°35' E 135°07'817.1
2017-Oct-13 19:30N 34°36' E 134°57'5 0.2
2017-Oct-12 14:48N 34°35' E 134°52'619.2
2017-Oct-12 14:30N 34°37' E 134°58'917.3
2017-Oct-12 14:00N 34°36' E 135°08'918.9
2017-Oct-12 13:30N 34°37' E 135°20'510.4
2017-Oct-12 13:00N 34°37' E 135°26'0 0.0
2017-Oct-12 11:11N 34°37' E 135°26'0 0.0
2017-Oct-12 10:41N 34°37' E 135°26'0 0.0
2017-Oct-12 10:29N 34°37' E 135°26'0 0.0
2017-Oct-12 09:59N 34°37' E 135°26'0 0.0
2017-Oct-12 09:29N 34°37' E 135°26'0 0.0
2017-Oct-12 08:47N 34°37' E 135°26'0 0.0
2017-Oct-12 08:29N 34°37' E 135°26'0 0.1
2017-Oct-12 07:59N 34°37' E 135°26'0 0.0
2017-Oct-12 07:23N 34°37' E 135°26'0 0.0
2017-Oct-12 06:59N 34°37' E 135°26'0 0.0
2017-Oct-12 06:29N 34°37' E 135°26'0 0.0
2017-Oct-12 05:59N 34°37' E 135°26'0 0.0
2017-Oct-12 05:29N 34°37' E 135°26'0 0.0
2017-Oct-12 04:53N 34°37' E 135°26'0 0.0
2017-Oct-12 04:29N 34°37' E 135°26'0 0.0
2017-Oct-12 03:53N 34°37' E 135°26'0 0.0
2017-Oct-12 03:29N 34°37' E 135°26'0 0.0
2017-Oct-12 02:59N 34°37' E 135°26'0 0.0
2017-Oct-12 02:29N 34°37' E 135°26'  

Dump ship's entire track history